Proctor, Montana
Current Conditions -  °F | °C
As of 10:55 PM on Thursday 30 Oct 2014 (Local Time) from KGPI Reporting Station
Clear Clear  
Wind Chill: 35°   Ceiling: Unl
Heat Index: 39°   Visibility: 10mi
Dew Point: 39°   Wind: 6mph
Humidity: 100%   Direction: 290°WNW
Pressure: 29.98"   Gusts: NA
Location:  47.92°N, 114.37°W
Report Text: KGPI 310455Z 29005KT 10SM CLR 04/04 A2998 RMK AO2 SLP168 T00390039
Loading
Personal Weather Stations






























Interactive Weather Map
Tropical Storm Tracking
New forecast layout! Learn more

10-Day Weather Forecast

Advertisements
Track Severe Weather on mobile